Tuotuohe, China
Current Conditions -  °F | °C
As of 12:00 PM on Monday 20 Oct 2014 (Local Time) from ZLLL Reporting Station
Scattered Clouds Scattered Clouds  
Wind Chill: 52°   Ceiling: Unl
Heat Index: 52°   Visibility: 6mi
Dew Point: 37°   Wind: 11mph
Humidity: 58%   Direction: 230°SW
Pressure: 30.21"   Gusts: NA
Location:  34.22°N, 92.43°E
Report Text: ZLLL 200400Z 23005MPS 190V250 9999 FEW020 FEW033CBSCT04611/03 Q1023 NOSIG
Loading
Personal Weather Stations






























Interactive Weather Map
Tropical Storm Tracking
New forecast layout! Learn more

10-Day Weather Forecast

Advertisements
Track Severe Weather on mobile